createdAt,value
2022-11-21T00:03:04.119Z,7.55
2022-11-21T00:08:35.377Z,7.32
2022-11-21T00:14:06.808Z,8.60
2022-11-21T00:19:37.596Z,7.57
2022-11-21T00:25:09.585Z,6.47
2022-11-21T00:30:40.759Z,7.35
2022-11-21T00:36:11.792Z,7.03
2022-11-21T00:41:42.958Z,7.97
2022-11-21T00:47:13.795Z,7.13
2022-11-21T00:52:44.995Z,8.05
2022-11-21T00:58:15.820Z,7.45
2022-11-21T01:03:47.109Z,6.85
2022-11-21T01:09:18.539Z,6.75
2022-11-21T01:14:49.525Z,8.07
2022-11-21T01:20:20.857Z,7.60
2022-11-21T01:25:52.156Z,6.88
2022-11-21T01:31:26.221Z,7.72
2022-11-21T01:36:57.180Z,7.68
2022-11-21T01:42:28.392Z,5.38
2022-11-21T01:47:59.598Z,7.50
2022-11-21T01:53:30.662Z,6.70
2022-11-21T01:59:04.123Z,6.30
2022-11-21T02:04:35.747Z,4.68
2022-11-21T02:10:07.899Z,5.85
2022-11-21T02:15:39.042Z,5.47
2022-11-21T02:21:37.220Z,4.63
2022-11-21T02:27:08.455Z,6.43
2022-11-21T02:32:47.862Z,6.78
2022-11-21T02:38:37.678Z,8.55
2022-11-21T02:44:30.463Z,4.82
2022-11-21T02:50:13.321Z,4.35
2022-11-21T02:55:44.967Z,4.55
2022-11-21T03:01:16.047Z,5.10
2022-11-21T03:06:47.021Z,4.95
2022-11-21T03:12:18.268Z,6.28
2022-11-21T03:17:49.851Z,4.68
2022-11-21T03:23:21.130Z,4.25
2022-11-21T03:28:52.104Z,4.25
2022-11-21T03:34:23.382Z,4.70
2022-11-21T03:39:54.372Z,4.07
2022-11-21T03:45:25.758Z,5.30
2022-11-21T03:50:57.095Z,2.92
2022-11-21T03:56:28.634Z,4.13
2022-11-21T04:01:59.829Z,3.45
2022-11-21T04:07:30.995Z,2.67
2022-11-21T04:13:02.275Z,2.88
2022-11-21T04:18:34.938Z,2.65
2022-11-21T04:24:06.580Z,3.08
2022-11-21T04:29:37.535Z,2.83
2022-11-21T04:35:08.999Z,3.05
2022-11-21T04:40:40.772Z,4.50
2022-11-21T04:46:11.701Z,3.47
2022-11-21T04:51:42.799Z,2.13
2022-11-21T04:57:14.055Z,2.20
2022-11-21T05:02:45.411Z,2.25
2022-11-21T05:08:16.757Z,3.67
2022-11-21T05:13:47.695Z,2.55
2022-11-21T05:19:18.877Z,2.53
2022-11-21T05:24:50.032Z,1.77
2022-11-21T05:30:21.281Z,2.78
2022-11-21T05:35:52.326Z,1.38
2022-11-21T05:41:24.117Z,2.75
2022-11-21T05:46:55.448Z,2.58
2022-11-21T05:52:28.537Z,1.45
2022-11-21T05:58:00.902Z,2.20
2022-11-21T06:03:36.094Z,2.53
2022-11-21T06:09:06.935Z,2.33
2022-11-21T06:14:38.248Z,2.03
2022-11-21T06:20:10.505Z,2.83
2022-11-21T06:25:42.520Z,2.15
2022-11-21T06:31:19.120Z,1.77
2022-11-21T06:36:51.128Z,3.10
2022-11-21T06:42:22.422Z,4.03
2022-11-21T06:47:53.573Z,2.15
2022-11-21T06:53:24.649Z,2.50
2022-11-21T06:58:56.396Z,1.70
2022-11-21T07:04:27.989Z,2.13
2022-11-21T07:09:59.042Z,1.65
2022-11-21T07:15:30.150Z,3.10
2022-11-21T07:21:03.379Z,1.83
2022-11-21T07:26:34.660Z,3.17
2022-11-21T07:32:05.868Z,1.65
2022-11-21T07:37:40.405Z,1.73
2022-11-21T07:43:11.931Z,2.20
2022-11-21T07:48:42.798Z,1.42
2022-11-21T07:54:13.960Z,1.88
2022-11-21T07:59:45.894Z,3.08
2022-11-21T08:05:16.781Z,1.55
2022-11-21T08:10:48.139Z,2.55
2022-11-21T08:16:19.095Z,3.88
2022-11-21T08:21:50.455Z,2.00
2022-11-21T08:27:23.189Z,2.53
2022-11-21T08:32:54.369Z,3.90
2022-11-21T08:38:25.555Z,3.55
2022-11-21T08:43:56.781Z,2.33
2022-11-21T08:49:28.706Z,4.15
2022-11-21T08:54:59.910Z,4.32
2022-11-21T09:00:31.061Z,4.13
2022-11-21T09:06:03.491Z,2.67
2022-11-21T09:11:35.252Z,2.75
2022-11-21T09:17:29.686Z,1.42
2022-11-21T09:23:08.893Z,6.80
2022-11-21T09:28:41.605Z,2.22
2022-11-21T09:34:12.894Z,3.00
2022-11-21T09:39:44.140Z,4.10
2022-11-21T09:45:36.446Z,2.58
2022-11-21T09:51:12.770Z,1.60
2022-11-21T09:56:44.185Z,3.53
2022-11-21T10:02:18.218Z,2.63
2022-11-21T10:07:51.637Z,2.20
2022-11-21T10:13:37.177Z,1.98
2022-11-21T10:19:08.564Z,2.15
2022-11-21T10:25:03.830Z,1.75
2022-11-21T10:30:35.346Z,3.35
2022-11-21T10:36:14.187Z,1.17
2022-11-21T10:42:03.356Z,3.60
2022-11-21T10:47:37.850Z,1.40
2022-11-21T10:53:27.415Z,2.60
2022-11-21T10:59:01.662Z,1.40
2022-11-21T11:04:42.876Z,2.78
2022-11-21T11:10:27.793Z,2.08
2022-11-21T11:15:59.655Z,2.83
2022-11-21T11:21:41.790Z,2.83
2022-11-21T11:27:12.913Z,1.77
2022-11-21T11:32:44.049Z,1.60
2022-11-21T11:38:15.815Z,2.17
2022-11-21T11:44:28.388Z,2.55
2022-11-21T11:50:12.153Z,1.30
2022-11-21T11:56:03.042Z,3.43
2022-11-21T12:01:39.180Z,3.53
2022-11-21T12:13:12.102Z,3.42
2022-11-21T12:18:56.791Z,2.55
2022-11-21T12:24:27.844Z,1.83
2022-11-21T12:30:15.366Z,2.65
2022-11-21T12:36:18.833Z,1.90
2022-11-21T12:42:49.750Z,1.67
2022-11-21T12:48:49.391Z,2.33
2022-11-21T12:54:45.214Z,1.40
2022-11-21T13:00:40.412Z,2.05
2022-11-21T13:06:18.322Z,2.30
2022-11-21T13:12:00.892Z,1.55
2022-11-21T13:17:31.966Z,2.13
2022-11-21T13:23:07.279Z,2.70
2022-11-21T13:28:38.566Z,1.60
2022-11-21T13:34:31.461Z,1.85
2022-11-21T13:40:27.261Z,1.65
2022-11-21T13:45:59.524Z,2.15
2022-11-21T13:51:53.071Z,1.50
2022-11-21T13:57:42.682Z,1.88
2022-11-21T14:03:53.964Z,1.45
2022-11-21T14:09:27.604Z,2.45
2022-11-21T14:15:02.146Z,2.10
2022-11-21T14:20:54.080Z,1.90
2022-11-21T14:26:25.833Z,1.63
2022-11-21T14:31:57.001Z,1.55
2022-11-21T14:37:28.403Z,1.27
2022-11-21T14:43:01.362Z,2.45
2022-11-21T14:48:32.464Z,1.70
2022-11-21T14:54:04.440Z,2.25
2022-11-21T14:59:42.333Z,2.90
2022-11-21T15:05:21.274Z,2.22
2022-11-21T15:11:05.307Z,2.45
2022-11-21T15:16:36.567Z,3.03
2022-11-21T15:22:07.547Z,3.03
2022-11-21T15:27:38.811Z,4.10
2022-11-21T15:33:12.589Z,3.00
2022-11-21T15:44:22.699Z,2.25
2022-11-21T15:49:53.660Z,1.88
2022-11-21T15:55:29.793Z,2.78
2022-11-21T16:01:01.049Z,2.25
2022-11-21T16:06:33.101Z,1.90
2022-11-21T16:12:04.767Z,1.48
2022-11-21T16:17:35.803Z,2.53
2022-11-21T16:23:07.149Z,3.60
2022-11-21T16:28:38.658Z,1.77
2022-11-21T16:34:09.975Z,2.67
2022-11-21T16:39:42.036Z,3.55
2022-11-21T16:45:13.205Z,1.98
2022-11-21T16:50:44.630Z,2.90
2022-11-21T16:56:16.553Z,2.17
2022-11-21T17:01:48.053Z,2.58
2022-11-21T17:07:19.678Z,3.45
2022-11-21T17:12:50.620Z,2.53
2022-11-21T17:18:22.081Z,2.30
2022-11-21T17:23:53.063Z,2.70
2022-11-21T17:29:24.430Z,3.28
2022-11-21T17:34:55.507Z,2.17
2022-11-21T17:40:26.806Z,2.70
2022-11-21T17:46:07.916Z,3.22
2022-11-21T17:51:40.891Z,3.42
2022-11-21T17:57:12.100Z,3.00
2022-11-21T18:02:43.333Z,3.05
2022-11-21T18:08:14.482Z,2.97
2022-11-21T18:13:46.080Z,2.38
2022-11-21T18:19:16.951Z,2.58
2022-11-21T18:24:47.894Z,4.05
2022-11-21T18:30:19.355Z,2.83
2022-11-21T18:35:50.370Z,3.33
2022-11-21T18:41:39.741Z,4.13
2022-11-21T18:47:20.045Z,2.90
2022-11-21T18:52:53.478Z,3.00
2022-11-21T18:58:26.626Z,3.50
2022-11-21T19:03:58.481Z,3.42
2022-11-21T19:09:32.492Z,4.13
2022-11-21T19:15:04.092Z,4.60
2022-11-21T19:20:39.437Z,4.20
2022-11-21T19:26:14.553Z,2.83
2022-11-21T19:31:46.206Z,3.25
2022-11-21T19:37:17.723Z,3.22
2022-11-21T19:42:48.906Z,3.38
2022-11-21T19:48:20.201Z,4.00
2022-11-21T19:53:51.495Z,3.28
2022-11-21T19:59:24.125Z,4.65
2022-11-21T20:04:55.535Z,3.20
2022-11-21T20:10:26.618Z,3.13
2022-11-21T20:15:57.640Z,4.22
2022-11-21T20:21:29.543Z,3.80
2022-11-21T20:27:00.666Z,3.70
2022-11-21T20:32:33.577Z,5.32
2022-11-21T20:38:04.626Z,3.28
2022-11-21T20:44:10.510Z,3.72
2022-11-21T20:49:26.894Z,3.70
2022-11-21T20:54:58.485Z,5.05
2022-11-21T21:00:29.731Z,3.30
2022-11-21T21:06:06.945Z,4.07
2022-11-21T21:11:52.040Z,3.75
2022-11-21T21:17:24.556Z,4.28
2022-11-21T21:22:56.517Z,4.43
2022-11-21T21:28:27.878Z,3.88
2022-11-21T21:34:00.967Z,4.25
2022-11-21T21:39:31.930Z,4.30
2022-11-21T21:45:03.390Z,4.22
2022-11-21T21:50:34.474Z,4.43
2022-11-21T21:56:06.865Z,4.13
2022-11-21T22:01:38.011Z,5.10
2022-11-21T22:07:09.476Z,6.10
2022-11-21T22:12:43.977Z,4.50
2022-11-21T22:18:15.545Z,4.97
2022-11-21T22:24:09.854Z,5.43
2022-11-21T22:29:38.922Z,6.13
2022-11-21T22:35:09.988Z,4.63
2022-11-21T22:40:41.236Z,6.05
2022-11-21T22:46:13.087Z,5.03
2022-11-21T22:51:44.268Z,5.90
2022-11-21T22:57:15.435Z,5.20
2022-11-21T23:02:46.658Z,6.50
2022-11-21T23:08:17.854Z,5.38
2022-11-21T23:13:49.791Z,5.20
2022-11-21T23:19:20.645Z,6.60
2022-11-21T23:24:51.969Z,5.82
2022-11-21T23:30:23.405Z,5.70
2022-11-21T23:35:54.856Z,5.95
2022-11-21T23:41:25.918Z,7.93
2022-11-21T23:46:57.318Z,5.00
2022-11-21T23:52:28.700Z,5.40
2022-11-21T23:57:59.755Z,6.65
